sensor_id;sensor_type;location;lat;lon;timestamp;P1;durP1;ratioP1;P2;durP2;ratioP2
21360;SDS011;10839;43.206;23.550;2023-02-28T00:00:33;40.75;;;21.55;;
21360;SDS011;10839;43.206;23.550;2023-02-28T00:03:01;38.03;;;19.05;;
21360;SDS011;10839;43.206;23.550;2023-02-28T00:05:27;38.25;;;20.38;;
21360;SDS011;10839;43.206;23.550;2023-02-28T00:07:54;41.83;;;20.42;;
21360;SDS011;10839;43.206;23.550;2023-02-28T00:10:22;39.50;;;20.38;;
21360;SDS011;10839;43.206;23.550;2023-02-28T00:12:52;36.50;;;19.73;;
21360;SDS011;10839;43.206;23.550;2023-02-28T00:15:22;39.33;;;20.25;;
21360;SDS011;10839;43.206;23.550;2023-02-28T00:17:49;31.73;;;17.27;;
21360;SDS011;10839;43.206;23.550;2023-02-28T00:20:15;32.58;;;18.02;;
21360;SDS011;10839;43.206;23.550;2023-02-28T00:22:42;34.33;;;18.08;;
21360;SDS011;10839;43.206;23.550;2023-02-28T00:25:10;36.00;;;18.88;;
21360;SDS011;10839;43.206;23.550;2023-02-28T00:27:39;32.00;;;16.60;;
21360;SDS011;10839;43.206;23.550;2023-02-28T00:30:06;33.63;;;18.85;;
21360;SDS011;10839;43.206;23.550;2023-02-28T00:32:36;30.23;;;15.73;;
21360;SDS011;10839;43.206;23.550;2023-02-28T00:35:03;29.42;;;16.13;;
21360;SDS011;10839;43.206;23.550;2023-02-28T00:37:29;29.17;;;16.10;;
21360;SDS011;10839;43.206;23.550;2023-02-28T00:39:55;29.70;;;15.20;;
21360;SDS011;10839;43.206;23.550;2023-02-28T00:42:21;33.05;;;15.45;;
21360;SDS011;10839;43.206;23.550;2023-02-28T00:44:47;31.33;;;16.10;;
21360;SDS011;10839;43.206;23.550;2023-02-28T00:47:13;28.02;;;15.35;;
21360;SDS011;10839;43.206;23.550;2023-02-28T00:49:39;31.65;;;17.05;;
21360;SDS011;10839;43.206;23.550;2023-02-28T00:52:05;28.63;;;15.43;;
21360;SDS011;10839;43.206;23.550;2023-02-28T00:54:31;30.83;;;15.85;;
21360;SDS011;10839;43.206;23.550;2023-02-28T00:56:57;30.02;;;16.05;;
21360;SDS011;10839;43.206;23.550;2023-02-28T00:59:24;28.70;;;15.95;;
21360;SDS011;10839;43.206;23.550;2023-02-28T01:01:50;28.33;;;15.90;;
21360;SDS011;10839;43.206;23.550;2023-02-28T01:04:28;31.38;;;16.42;;
21360;SDS011;10839;43.206;23.550;2023-02-28T01:06:54;31.15;;;15.77;;
21360;SDS011;10839;43.206;23.550;2023-02-28T01:09:20;29.73;;;16.25;;
21360;SDS011;10839;43.206;23.550;2023-02-28T01:11:46;25.85;;;15.07;;
21360;SDS011;10839;43.206;23.550;2023-02-28T01:14:12;29.33;;;15.98;;
21360;SDS011;10839;43.206;23.550;2023-02-28T01:16:39;30.83;;;17.20;;
21360;SDS011;10839;43.206;23.550;2023-02-28T01:19:06;26.90;;;15.63;;
21360;SDS011;10839;43.206;23.550;2023-02-28T01:21:32;32.53;;;17.23;;
21360;SDS011;10839;43.206;23.550;2023-02-28T01:24:00;30.27;;;16.42;;
21360;SDS011;10839;43.206;23.550;2023-02-28T01:26:26;32.40;;;16.92;;
21360;SDS011;10839;43.206;23.550;2023-02-28T01:28:52;32.70;;;18.45;;
21360;SDS011;10839;43.206;23.550;2023-02-28T01:31:18;30.83;;;17.15;;
21360;SDS011;10839;43.206;23.550;2023-02-28T01:33:45;31.23;;;17.73;;
21360;SDS011;10839;43.206;23.550;2023-02-28T01:38:39;30.92;;;16.90;;
21360;SDS011;10839;43.206;23.550;2023-02-28T01:41:06;27.80;;;15.60;;
21360;SDS011;10839;43.206;23.550;2023-02-28T01:46:12;27.77;;;14.95;;
21360;SDS011;10839;43.206;23.550;2023-02-28T01:49:02;28.25;;;15.23;;
21360;SDS011;10839;43.206;23.550;2023-02-28T01:54:22;28.20;;;15.27;;
21360;SDS011;10839;43.206;23.550;2023-02-28T01:56:54;31.60;;;15.77;;
21360;SDS011;10839;43.206;23.550;2023-02-28T01:59:27;32.40;;;16.20;;
21360;SDS011;10839;43.206;23.550;2023-02-28T02:02:00;32.08;;;16.92;;
21360;SDS011;10839;43.206;23.550;2023-02-28T02:04:31;29.95;;;16.23;;
21360;SDS011;10839;43.206;23.550;2023-02-28T02:07:02;30.90;;;15.88;;
21360;SDS011;10839;43.206;23.550;2023-02-28T02:09:29;34.60;;;16.20;;
21360;SDS011;10839;43.206;23.550;2023-02-28T02:11:55;30.70;;;16.05;;
21360;SDS011;10839;43.206;23.550;2023-02-28T02:19:51;30.85;;;16.30;;
21360;SDS011;10839;43.206;23.550;2023-02-28T02:25:26;32.70;;;15.98;;
21360;SDS011;10839;43.206;23.550;2023-02-28T02:36:53;40.20;;;20.63;;
21360;SDS011;10839;43.206;23.550;2023-02-28T02:42:59;34.42;;;17.52;;
21360;SDS011;10839;43.206;23.550;2023-02-28T02:45:51;36.00;;;16.88;;
21360;SDS011;10839;43.206;23.550;2023-02-28T02:48:24;36.30;;;17.52;;
21360;SDS011;10839;43.206;23.550;2023-02-28T02:51:00;37.70;;;17.55;;
21360;SDS011;10839;43.206;23.550;2023-02-28T02:53:34;36.67;;;17.55;;
21360;SDS011;10839;43.206;23.550;2023-02-28T02:56:04;37.92;;;17.23;;
21360;SDS011;10839;43.206;23.550;2023-02-28T02:58:35;34.53;;;16.98;;
21360;SDS011;10839;43.206;23.550;2023-02-28T03:01:10;35.85;;;16.35;;
21360;SDS011;10839;43.206;23.550;2023-02-28T03:03:56;36.53;;;16.52;;
21360;SDS011;10839;43.206;23.550;2023-02-28T03:06:26;33.17;;;15.98;;
21360;SDS011;10839;43.206;23.550;2023-02-28T03:08:53;32.00;;;15.88;;
21360;SDS011;10839;43.206;23.550;2023-02-28T03:11:21;34.13;;;16.17;;
21360;SDS011;10839;43.206;23.550;2023-02-28T03:27:45;35.80;;;16.95;;
21360;SDS011;10839;43.206;23.550;2023-02-28T03:30:24;39.67;;;18.00;;
21360;SDS011;10839;43.206;23.550;2023-02-28T03:35:42;45.38;;;20.63;;
21360;SDS011;10839;43.206;23.550;2023-02-28T03:39:16;51.13;;;22.48;;
21360;SDS011;10839;43.206;23.550;2023-02-28T03:43:53;60.13;;;24.85;;
21360;SDS011;10839;43.206;23.550;2023-02-28T03:46:24;82.05;;;35.20;;
21360;SDS011;10839;43.206;23.550;2023-02-28T03:51:41;84.63;;;37.75;;
21360;SDS011;10839;43.206;23.550;2023-02-28T03:54:19;69.72;;;30.63;;
21360;SDS011;10839;43.206;23.550;2023-02-28T03:56:56;72.60;;;28.80;;
21360;SDS011;10839;43.206;23.550;2023-02-28T03:59:56;53.33;;;22.52;;
21360;SDS011;10839;43.206;23.550;2023-02-28T04:02:20;46.83;;;20.15;;
21360;SDS011;10839;43.206;23.550;2023-02-28T04:04:45;47.75;;;20.40;;
21360;SDS011;10839;43.206;23.550;2023-02-28T04:07:15;53.35;;;20.90;;
21360;SDS011;10839;43.206;23.550;2023-02-28T04:09:41;46.00;;;20.77;;
21360;SDS011;10839;43.206;23.550;2023-02-28T04:12:08;46.30;;;21.15;;
21360;SDS011;10839;43.206;23.550;2023-02-28T04:14:34;51.70;;;21.67;;
21360;SDS011;10839;43.206;23.550;2023-02-28T04:17:00;54.45;;;22.83;;
21360;SDS011;10839;43.206;23.550;2023-02-28T04:19:25;61.00;;;22.98;;
21360;SDS011;10839;43.206;23.550;2023-02-28T04:21:52;53.60;;;23.58;;
21360;SDS011;10839;43.206;23.550;2023-02-28T04:24:23;82.32;;;35.80;;
21360;SDS011;10839;43.206;23.550;2023-02-28T04:26:53;104.95;;;45.47;;
21360;SDS011;10839;43.206;23.550;2023-02-28T04:29:21;66.07;;;28.02;;
21360;SDS011;10839;43.206;23.550;2023-02-28T04:31:49;59.33;;;26.17;;
21360;SDS011;10839;43.206;23.550;2023-02-28T04:34:16;58.33;;;25.38;;
21360;SDS011;10839;43.206;23.550;2023-02-28T04:36:44;50.10;;;23.67;;
21360;SDS011;10839;43.206;23.550;2023-02-28T04:39:11;44.03;;;21.10;;
21360;SDS011;10839;43.206;23.550;2023-02-28T04:41:37;42.20;;;19.67;;
21360;SDS011;10839;43.206;23.550;2023-02-28T04:44:03;40.85;;;18.25;;
21360;SDS011;10839;43.206;23.550;2023-02-28T04:46:30;40.38;;;18.20;;
21360;SDS011;10839;43.206;23.550;2023-02-28T04:48:56;41.67;;;18.95;;
21360;SDS011;10839;43.206;23.550;2023-02-28T04:51:23;49.15;;;20.48;;
21360;SDS011;10839;43.206;23.550;2023-02-28T04:53:50;37.85;;;17.35;;
21360;SDS011;10839;43.206;23.550;2023-02-28T04:56:16;35.10;;;17.05;;
21360;SDS011;10839;43.206;23.550;2023-02-28T04:58:44;38.05;;;17.60;;
21360;SDS011;10839;43.206;23.550;2023-02-28T05:03:44;189.68;;;88.05;;
21360;SDS011;10839;43.206;23.550;2023-02-28T05:06:10;57.35;;;28.15;;
21360;SDS011;10839;43.206;23.550;2023-02-28T05:08:38;50.88;;;25.40;;
21360;SDS011;10839;43.206;23.550;2023-02-28T05:11:06;42.25;;;20.70;;
21360;SDS011;10839;43.206;23.550;2023-02-28T05:13:37;38.72;;;18.58;;
21360;SDS011;10839;43.206;23.550;2023-02-28T05:16:03;33.92;;;16.45;;
21360;SDS011;10839;43.206;23.550;2023-02-28T05:18:29;33.33;;;16.10;;
21360;SDS011;10839;43.206;23.550;2023-02-28T05:20:55;30.10;;;16.25;;
21360;SDS011;10839;43.206;23.550;2023-02-28T05:23:20;31.50;;;15.80;;
21360;SDS011;10839;43.206;23.550;2023-02-28T05:25:48;34.50;;;16.95;;
21360;SDS011;10839;43.206;23.550;2023-02-28T05:28:14;37.78;;;17.40;;
21360;SDS011;10839;43.206;23.550;2023-02-28T05:30:39;38.25;;;18.35;;
21360;SDS011;10839;43.206;23.550;2023-02-28T05:33:05;35.22;;;18.25;;
21360;SDS011;10839;43.206;23.550;2023-02-28T05:35:31;34.40;;;16.58;;
21360;SDS011;10839;43.206;23.550;2023-02-28T05:37:57;33.65;;;16.70;;
21360;SDS011;10839;43.206;23.550;2023-02-28T05:40:23;39.28;;;17.63;;
21360;SDS011;10839;43.206;23.550;2023-02-28T05:42:49;35.15;;;17.23;;
21360;SDS011;10839;43.206;23.550;2023-02-28T05:45:16;36.47;;;17.02;;
21360;SDS011;10839;43.206;23.550;2023-02-28T05:47:42;31.23;;;16.08;;
21360;SDS011;10839;43.206;23.550;2023-02-28T05:50:08;34.50;;;17.13;;
21360;SDS011;10839;43.206;23.550;2023-02-28T05:52:35;35.60;;;17.50;;
21360;SDS011;10839;43.206;23.550;2023-02-28T05:55:03;36.17;;;17.08;;
21360;SDS011;10839;43.206;23.550;2023-02-28T05:57:29;32.47;;;17.27;;
21360;SDS011;10839;43.206;23.550;2023-02-28T05:59:54;40.17;;;19.48;;
21360;SDS011;10839;43.206;23.550;2023-02-28T06:02:21;37.88;;;17.65;;
21360;SDS011;10839;43.206;23.550;2023-02-28T06:04:46;33.70;;;15.80;;
21360;SDS011;10839;43.206;23.550;2023-02-28T06:07:12;30.15;;;16.40;;
21360;SDS011;10839;43.206;23.550;2023-02-28T06:09:38;31.65;;;15.43;;
21360;SDS011;10839;43.206;23.550;2023-02-28T06:12:04;29.10;;;15.65;;
21360;SDS011;10839;43.206;23.550;2023-02-28T06:14:32;28.90;;;14.27;;
21360;SDS011;10839;43.206;23.550;2023-02-28T06:16:59;29.92;;;14.18;;
21360;SDS011;10839;43.206;23.550;2023-02-28T06:19:26;31.15;;;14.90;;
21360;SDS011;10839;43.206;23.550;2023-02-28T06:21:52;26.20;;;14.25;;
21360;SDS011;10839;43.206;23.550;2023-02-28T06:24:20;31.00;;;15.00;;
21360;SDS011;10839;43.206;23.550;2023-02-28T06:26:46;31.25;;;14.85;;
21360;SDS011;10839;43.206;23.550;2023-02-28T06:29:12;28.67;;;14.27;;
21360;SDS011;10839;43.206;23.550;2023-02-28T06:31:43;26.20;;;13.15;;
21360;SDS011;10839;43.206;23.550;2023-02-28T06:34:10;26.33;;;13.80;;
21360;SDS011;10839;43.206;23.550;2023-02-28T06:36:41;30.13;;;14.35;;
21360;SDS011;10839;43.206;23.550;2023-02-28T06:39:08;26.17;;;13.32;;
21360;SDS011;10839;43.206;23.550;2023-02-28T06:41:34;24.95;;;13.05;;
21360;SDS011;10839;43.206;23.550;2023-02-28T06:44:13;24.05;;;13.02;;
21360;SDS011;10839;43.206;23.550;2023-02-28T06:46:42;27.20;;;14.20;;
21360;SDS011;10839;43.206;23.550;2023-02-28T06:49:09;24.75;;;13.65;;
21360;SDS011;10839;43.206;23.550;2023-02-28T06:51:37;25.15;;;13.15;;
21360;SDS011;10839;43.206;23.550;2023-02-28T06:54:04;26.55;;;12.82;;
21360;SDS011;10839;43.206;23.550;2023-02-28T06:56:34;26.52;;;12.60;;
21360;SDS011;10839;43.206;23.550;2023-02-28T06:59:01;26.45;;;13.90;;
21360;SDS011;10839;43.206;23.550;2023-02-28T07:01:28;27.88;;;15.55;;
21360;SDS011;10839;43.206;23.550;2023-02-28T07:03:57;27.90;;;15.18;;
21360;SDS011;10839;43.206;23.550;2023-02-28T07:06:23;29.13;;;15.55;;
21360;SDS011;10839;43.206;23.550;2023-02-28T07:08:50;29.02;;;15.23;;
21360;SDS011;10839;43.206;23.550;2023-02-28T07:11:18;26.38;;;13.93;;
21360;SDS011;10839;43.206;23.550;2023-02-28T07:13:51;29.23;;;15.23;;
21360;SDS011;10839;43.206;23.550;2023-02-28T07:16:21;27.50;;;14.15;;
21360;SDS011;10839;43.206;23.550;2023-02-28T07:18:47;32.72;;;16.65;;
21360;SDS011;10839;43.206;23.550;2023-02-28T07:21:14;27.92;;;14.00;;
21360;SDS011;10839;43.206;23.550;2023-02-28T07:23:40;33.38;;;15.50;;
21360;SDS011;10839;43.206;23.550;2023-02-28T07:26:08;33.88;;;17.15;;
21360;SDS011;10839;43.206;23.550;2023-02-28T07:28:40;30.30;;;15.68;;
21360;SDS011;10839;43.206;23.550;2023-02-28T07:31:07;26.30;;;14.65;;
21360;SDS011;10839;43.206;23.550;2023-02-28T07:33:33;27.60;;;13.63;;
21360;SDS011;10839;43.206;23.550;2023-02-28T07:36:00;25.25;;;12.98;;
21360;SDS011;10839;43.206;23.550;2023-02-28T07:38:28;23.75;;;12.60;;
21360;SDS011;10839;43.206;23.550;2023-02-28T07:40:54;28.48;;;14.23;;
21360;SDS011;10839;43.206;23.550;2023-02-28T07:43:20;25.55;;;13.30;;
21360;SDS011;10839;43.206;23.550;2023-02-28T07:45:46;25.55;;;14.10;;
21360;SDS011;10839;43.206;23.550;2023-02-28T07:48:12;21.92;;;12.45;;
21360;SDS011;10839;43.206;23.550;2023-02-28T07:50:38;27.77;;;14.60;;
21360;SDS011;10839;43.206;23.550;2023-02-28T07:53:04;22.23;;;13.63;;
21360;SDS011;10839;43.206;23.550;2023-02-28T07:55:31;21.65;;;12.23;;
21360;SDS011;10839;43.206;23.550;2023-02-28T07:57:57;21.42;;;12.73;;
21360;SDS011;10839;43.206;23.550;2023-02-28T08:00:23;26.73;;;14.23;;
21360;SDS011;10839;43.206;23.550;2023-02-28T08:02:50;30.73;;;16.63;;
21360;SDS011;10839;43.206;23.550;2023-02-28T08:05:16;32.25;;;18.08;;
21360;SDS011;10839;43.206;23.550;2023-02-28T08:07:42;32.38;;;18.15;;
21360;SDS011;10839;43.206;23.550;2023-02-28T08:10:08;25.38;;;14.75;;
21360;SDS011;10839;43.206;23.550;2023-02-28T08:12:35;26.65;;;14.90;;
21360;SDS011;10839;43.206;23.550;2023-02-28T08:15:01;29.67;;;15.98;;
21360;SDS011;10839;43.206;23.550;2023-02-28T08:17:27;28.40;;;16.35;;
21360;SDS011;10839;43.206;23.550;2023-02-28T08:19:53;33.75;;;18.17;;
21360;SDS011;10839;43.206;23.550;2023-02-28T08:22:18;26.77;;;15.23;;
21360;SDS011;10839;43.206;23.550;2023-02-28T08:24:44;24.40;;;13.45;;
21360;SDS011;10839;43.206;23.550;2023-02-28T08:27:10;22.60;;;11.93;;
21360;SDS011;10839;43.206;23.550;2023-02-28T08:29:37;24.60;;;12.77;;
21360;SDS011;10839;43.206;23.550;2023-02-28T08:32:04;24.88;;;13.50;;
21360;SDS011;10839;43.206;23.550;2023-02-28T08:34:31;25.35;;;13.70;;
21360;SDS011;10839;43.206;23.550;2023-02-28T08:36:57;26.30;;;13.23;;
21360;SDS011;10839;43.206;23.550;2023-02-28T08:39:23;24.35;;;13.65;;
21360;SDS011;10839;43.206;23.550;2023-02-28T08:41:49;25.45;;;13.63;;
21360;SDS011;10839;43.206;23.550;2023-02-28T08:44:15;22.63;;;13.68;;
21360;SDS011;10839;43.206;23.550;2023-02-28T08:46:41;26.98;;;15.52;;
21360;SDS011;10839;43.206;23.550;2023-02-28T08:49:09;27.63;;;14.73;;
21360;SDS011;10839;43.206;23.550;2023-02-28T08:51:35;22.13;;;14.32;;
21360;SDS011;10839;43.206;23.550;2023-02-28T08:54:01;24.83;;;13.88;;
21360;SDS011;10839;43.206;23.550;2023-02-28T08:56:27;22.38;;;12.63;;
21360;SDS011;10839;43.206;23.550;2023-02-28T08:58:55;24.20;;;14.60;;
21360;SDS011;10839;43.206;23.550;2023-02-28T09:01:23;22.02;;;12.98;;
21360;SDS011;10839;43.206;23.550;2023-02-28T09:03:52;17.90;;;9.18;;
21360;SDS011;10839;43.206;23.550;2023-02-28T09:06:20;12.88;;;7.78;;
21360;SDS011;10839;43.206;23.550;2023-02-28T09:08:48;11.70;;;7.20;;
21360;SDS011;10839;43.206;23.550;2023-02-28T09:11:15;12.55;;;7.55;;
21360;SDS011;10839;43.206;23.550;2023-02-28T09:13:41;15.77;;;8.48;;
21360;SDS011;10839;43.206;23.550;2023-02-28T09:16:09;12.70;;;7.35;;
21360;SDS011;10839;43.206;23.550;2023-02-28T09:18:37;18.70;;;10.75;;
21360;SDS011;10839;43.206;23.550;2023-02-28T09:21:05;48.88;;;25.10;;
21360;SDS011;10839;43.206;23.550;2023-02-28T09:23:35;18.00;;;10.77;;
21360;SDS011;10839;43.206;23.550;2023-02-28T09:26:03;19.98;;;10.25;;
21360;SDS011;10839;43.206;23.550;2023-02-28T09:28:30;24.73;;;13.52;;
21360;SDS011;10839;43.206;23.550;2023-02-28T09:30:56;13.73;;;8.93;;
21360;SDS011;10839;43.206;23.550;2023-02-28T09:33:24;15.07;;;8.05;;
21360;SDS011;10839;43.206;23.550;2023-02-28T09:35:57;44.55;;;22.77;;
21360;SDS011;10839;43.206;23.550;2023-02-28T09:38:25;23.00;;;12.98;;
21360;SDS011;10839;43.206;23.550;2023-02-28T09:43:22;16.77;;;9.80;;
21360;SDS011;10839;43.206;23.550;2023-02-28T09:45:55;14.57;;;8.63;;
21360;SDS011;10839;43.206;23.550;2023-02-28T09:48:28;28.92;;;14.98;;
21360;SDS011;10839;43.206;23.550;2023-02-28T09:51:05;23.98;;;12.93;;
21360;SDS011;10839;43.206;23.550;2023-02-28T09:53:44;18.52;;;9.93;;
21360;SDS011;10839;43.206;23.550;2023-02-28T10:01:22;14.52;;;8.65;;
21360;SDS011;10839;43.206;23.550;2023-02-28T10:04:16;10.82;;;7.60;;
21360;SDS011;10839;43.206;23.550;2023-02-28T10:06:52;10.48;;;5.97;;
21360;SDS011;10839;43.206;23.550;2023-02-28T10:09:20;10.70;;;6.25;;
21360;SDS011;10839;43.206;23.550;2023-02-28T10:11:52;9.63;;;6.20;;
21360;SDS011;10839;43.206;23.550;2023-02-28T10:14:23;10.35;;;6.30;;
21360;SDS011;10839;43.206;23.550;2023-02-28T10:24:49;11.68;;;7.50;;
21360;SDS011;10839;43.206;23.550;2023-02-28T10:27:23;27.15;;;15.07;;
21360;SDS011;10839;43.206;23.550;2023-02-28T10:29:52;35.92;;;20.77;;
21360;SDS011;10839;43.206;23.550;2023-02-28T10:32:23;29.02;;;16.88;;
21360;SDS011;10839;43.206;23.550;2023-02-28T10:37:38;20.65;;;11.50;;
21360;SDS011;10839;43.206;23.550;2023-02-28T10:40:28;22.83;;;11.80;;
21360;SDS011;10839;43.206;23.550;2023-02-28T10:43:07;24.77;;;13.85;;
21360;SDS011;10839;43.206;23.550;2023-02-28T10:48:27;15.60;;;9.18;;
21360;SDS011;10839;43.206;23.550;2023-02-28T10:50:58;20.85;;;12.43;;
21360;SDS011;10839;43.206;23.550;2023-02-28T10:58:30;20.08;;;11.88;;
21360;SDS011;10839;43.206;23.550;2023-02-28T11:01:12;16.92;;;11.32;;
21360;SDS011;10839;43.206;23.550;2023-02-28T11:03:41;19.83;;;12.25;;
21360;SDS011;10839;43.206;23.550;2023-02-28T11:06:07;18.30;;;10.82;;
21360;SDS011;10839;43.206;23.550;2023-02-28T11:08:48;17.70;;;10.73;;
21360;SDS011;10839;43.206;23.550;2023-02-28T11:11:18;19.00;;;11.48;;
21360;SDS011;10839;43.206;23.550;2023-02-28T11:13:46;23.45;;;14.43;;
21360;SDS011;10839;43.206;23.550;2023-02-28T11:16:16;19.45;;;11.50;;
21360;SDS011;10839;43.206;23.550;2023-02-28T11:18:43;22.02;;;12.52;;
21360;SDS011;10839;43.206;23.550;2023-02-28T11:21:17;13.13;;;8.57;;
21360;SDS011;10839;43.206;23.550;2023-02-28T11:23:47;14.50;;;8.85;;
21360;SDS011;10839;43.206;23.550;2023-02-28T11:26:14;15.15;;;8.65;;
21360;SDS011;10839;43.206;23.550;2023-02-28T11:28:41;13.93;;;8.70;;
21360;SDS011;10839;43.206;23.550;2023-02-28T11:36:15;13.82;;;7.97;;
21360;SDS011;10839;43.206;23.550;2023-02-28T11:38:53;12.98;;;8.40;;
21360;SDS011;10839;43.206;23.550;2023-02-28T11:44:27;14.60;;;8.75;;
21360;SDS011;10839;43.206;23.550;2023-02-28T11:47:17;12.98;;;7.95;;
21360;SDS011;10839;43.206;23.550;2023-02-28T11:50:13;20.15;;;10.55;;
21360;SDS011;10839;43.206;23.550;2023-02-28T11:52:55;16.63;;;9.82;;
21360;SDS011;10839;43.206;23.550;2023-02-28T11:55:35;17.63;;;10.80;;
21360;SDS011;10839;43.206;23.550;2023-02-28T12:11:31;20.63;;;12.88;;
21360;SDS011;10839;43.206;23.550;2023-02-28T12:28:02;20.58;;;12.82;;
21360;SDS011;10839;43.206;23.550;2023-02-28T12:30:32;21.80;;;12.15;;
21360;SDS011;10839;43.206;23.550;2023-02-28T12:33:12;20.90;;;13.65;;
21360;SDS011;10839;43.206;23.550;2023-02-28T12:35:57;20.98;;;12.38;;
21360;SDS011;10839;43.206;23.550;2023-02-28T12:38:31;17.80;;;11.30;;
21360;SDS011;10839;43.206;23.550;2023-02-28T12:44:00;23.67;;;13.20;;
21360;SDS011;10839;43.206;23.550;2023-02-28T12:46:34;17.58;;;10.15;;
21360;SDS011;10839;43.206;23.550;2023-02-28T12:49:06;19.08;;;12.13;;
21360;SDS011;10839;43.206;23.550;2023-02-28T12:51:38;94.43;;;45.67;;
21360;SDS011;10839;43.206;23.550;2023-02-28T12:54:08;46.00;;;23.85;;
21360;SDS011;10839;43.206;23.550;2023-02-28T12:56:47;25.38;;;14.90;;
21360;SDS011;10839;43.206;23.550;2023-02-28T12:59:25;30.25;;;16.73;;
21360;SDS011;10839;43.206;23.550;2023-02-28T13:10:43;34.50;;;19.17;;
21360;SDS011;10839;43.206;23.550;2023-02-28T13:13:18;37.92;;;19.48;;
21360;SDS011;10839;43.206;23.550;2023-02-28T13:15:59;28.00;;;15.52;;
21360;SDS011;10839;43.206;23.550;2023-02-28T13:18:38;20.98;;;13.35;;
21360;SDS011;10839;43.206;23.550;2023-02-28T13:21:08;21.02;;;13.40;;
21360;SDS011;10839;43.206;23.550;2023-02-28T13:34:31;29.10;;;13.18;;
21360;SDS011;10839;43.206;23.550;2023-02-28T13:53:02;18.73;;;9.80;;
21360;SDS011;10839;43.206;23.550;2023-02-28T14:07:22;13.75;;;7.88;;
21360;SDS011;10839;43.206;23.550;2023-02-28T14:09:55;13.30;;;7.40;;
21360;SDS011;10839;43.206;23.550;2023-02-28T14:16:20;14.48;;;8.85;;
21360;SDS011;10839;43.206;23.550;2023-02-28T14:18:36;21.38;;;12.63;;
21360;SDS011;10839;43.206;23.550;2023-02-28T14:26:01;24.77;;;14.68;;
21360;SDS011;10839;43.206;23.550;2023-02-28T14:31:25;19.45;;;11.02;;
21360;SDS011;10839;43.206;23.550;2023-02-28T14:37:01;19.38;;;10.63;;
21360;SDS011;10839;43.206;23.550;2023-02-28T14:39:28;21.35;;;11.60;;
21360;SDS011;10839;43.206;23.550;2023-02-28T14:41:56;16.15;;;10.35;;
21360;SDS011;10839;43.206;23.550;2023-02-28T14:44:28;16.15;;;10.40;;
21360;SDS011;10839;43.206;23.550;2023-02-28T14:46:55;35.47;;;17.35;;
21360;SDS011;10839;43.206;23.550;2023-02-28T14:54:55;19.30;;;11.85;;
21360;SDS011;10839;43.206;23.550;2023-02-28T15:02:42;19.73;;;10.40;;
21360;SDS011;10839;43.206;23.550;2023-02-28T15:07:38;23.98;;;13.75;;
21360;SDS011;10839;43.206;23.550;2023-02-28T15:12:56;22.27;;;11.65;;
21360;SDS011;10839;43.206;23.550;2023-02-28T15:15:44;34.35;;;19.75;;
21360;SDS011;10839;43.206;23.550;2023-02-28T15:18:29;25.17;;;14.27;;
21360;SDS011;10839;43.206;23.550;2023-02-28T15:21:18;20.95;;;12.13;;
21360;SDS011;10839;43.206;23.550;2023-02-28T15:23:54;30.15;;;16.27;;
21360;SDS011;10839;43.206;23.550;2023-02-28T15:26:29;23.05;;;10.88;;
21360;SDS011;10839;43.206;23.550;2023-02-28T15:29:04;19.88;;;10.77;;
21360;SDS011;10839;43.206;23.550;2023-02-28T15:31:39;17.15;;;9.95;;
21360;SDS011;10839;43.206;23.550;2023-02-28T15:34:17;17.08;;;9.68;;
21360;SDS011;10839;43.206;23.550;2023-02-28T15:36:46;17.40;;;9.45;;
21360;SDS011;10839;43.206;23.550;2023-02-28T15:39:26;31.40;;;17.08;;
21360;SDS011;10839;43.206;23.550;2023-02-28T15:42:09;74.22;;;36.50;;
21360;SDS011;10839;43.206;23.550;2023-02-28T15:44:44;32.78;;;17.95;;
21360;SDS011;10839;43.206;23.550;2023-02-28T15:47:17;31.23;;;17.02;;
21360;SDS011;10839;43.206;23.550;2023-02-28T15:49:47;38.45;;;19.17;;
21360;SDS011;10839;43.206;23.550;2023-02-28T15:52:16;24.17;;;14.10;;
21360;SDS011;10839;43.206;23.550;2023-02-28T15:54:54;23.70;;;13.73;;
21360;SDS011;10839;43.206;23.550;2023-02-28T15:57:22;28.48;;;16.30;;
21360;SDS011;10839;43.206;23.550;2023-02-28T15:59:52;28.63;;;17.42;;
21360;SDS011;10839;43.206;23.550;2023-02-28T16:02:22;28.13;;;15.93;;
21360;SDS011;10839;43.206;23.550;2023-02-28T16:05:13;26.85;;;14.70;;
21360;SDS011;10839;43.206;23.550;2023-02-28T16:08:11;24.98;;;13.07;;
21360;SDS011;10839;43.206;23.550;2023-02-28T16:10:40;20.90;;;11.27;;
21360;SDS011;10839;43.206;23.550;2023-02-28T16:13:08;23.63;;;13.82;;
21360;SDS011;10839;43.206;23.550;2023-02-28T16:15:41;20.77;;;11.82;;
21360;SDS011;10839;43.206;23.550;2023-02-28T16:18:10;15.15;;;10.00;;
21360;SDS011;10839;43.206;23.550;2023-02-28T16:20:38;17.45;;;10.77;;
21360;SDS011;10839;43.206;23.550;2023-02-28T16:23:04;22.02;;;12.52;;
21360;SDS011;10839;43.206;23.550;2023-02-28T16:25:35;23.75;;;15.30;;
21360;SDS011;10839;43.206;23.550;2023-02-28T16:28:02;21.90;;;13.65;;
21360;SDS011;10839;43.206;23.550;2023-02-28T16:30:29;24.23;;;13.63;;
21360;SDS011;10839;43.206;23.550;2023-02-28T16:32:56;18.35;;;11.07;;
21360;SDS011;10839;43.206;23.550;2023-02-28T16:35:22;19.30;;;10.90;;
21360;SDS011;10839;43.206;23.550;2023-02-28T16:37:52;43.08;;;20.00;;
21360;SDS011;10839;43.206;23.550;2023-02-28T16:40:23;72.05;;;34.95;;
21360;SDS011;10839;43.206;23.550;2023-02-28T16:42:51;72.30;;;32.47;;
21360;SDS011;10839;43.206;23.550;2023-02-28T16:45:23;61.58;;;29.40;;
21360;SDS011;10839;43.206;23.550;2023-02-28T16:47:51;26.25;;;14.32;;
21360;SDS011;10839;43.206;23.550;2023-02-28T16:50:19;15.43;;;8.80;;
21360;SDS011;10839;43.206;23.550;2023-02-28T16:52:47;22.58;;;11.40;;
21360;SDS011;10839;43.206;23.550;2023-02-28T16:55:14;16.80;;;9.57;;
21360;SDS011;10839;43.206;23.550;2023-02-28T16:57:41;10.68;;;6.50;;
21360;SDS011;10839;43.206;23.550;2023-02-28T17:00:11;12.82;;;7.00;;
21360;SDS011;10839;43.206;23.550;2023-02-28T17:02:38;9.30;;;5.97;;
21360;SDS011;10839;43.206;23.550;2023-02-28T17:05:04;10.73;;;6.07;;
21360;SDS011;10839;43.206;23.550;2023-02-28T17:07:31;14.38;;;6.82;;
21360;SDS011;10839;43.206;23.550;2023-02-28T17:09:57;14.57;;;8.73;;
21360;SDS011;10839;43.206;23.550;2023-02-28T17:12:23;17.23;;;9.60;;
21360;SDS011;10839;43.206;23.550;2023-02-28T17:14:49;16.58;;;9.60;;
21360;SDS011;10839;43.206;23.550;2023-02-28T17:17:17;17.20;;;10.57;;
21360;SDS011;10839;43.206;23.550;2023-02-28T17:19:45;17.83;;;10.55;;
21360;SDS011;10839;43.206;23.550;2023-02-28T17:22:11;15.80;;;8.85;;
21360;SDS011;10839;43.206;23.550;2023-02-28T17:24:38;14.23;;;9.02;;
21360;SDS011;10839;43.206;23.550;2023-02-28T17:27:04;17.90;;;9.07;;
21360;SDS011;10839;43.206;23.550;2023-02-28T17:29:30;12.75;;;7.93;;
21360;SDS011;10839;43.206;23.550;2023-02-28T17:31:55;12.68;;;7.18;;
21360;SDS011;10839;43.206;23.550;2023-02-28T17:34:21;11.90;;;6.38;;
21360;SDS011;10839;43.206;23.550;2023-02-28T17:36:48;9.23;;;6.05;;
21360;SDS011;10839;43.206;23.550;2023-02-28T17:39:18;10.18;;;5.90;;
21360;SDS011;10839;43.206;23.550;2023-02-28T17:41:51;12.82;;;7.20;;